createdAt,value
2019-05-01T00:00:36.766Z,9.78
2019-05-01T00:01:36.747Z,9.71
2019-05-01T00:02:36.736Z,9.74
2019-05-01T00:03:36.722Z,9.69
2019-05-01T00:04:36.718Z,9.71
2019-05-01T00:05:36.674Z,9.71
2019-05-01T00:06:36.661Z,9.60
2019-05-01T00:07:36.665Z,9.60
2019-05-01T00:08:36.644Z,9.60
2019-05-01T00:09:36.599Z,9.65
2019-05-01T00:10:36.591Z,9.51
2019-05-01T00:11:36.569Z,9.58
2019-05-01T00:12:36.553Z,9.57
2019-05-01T00:13:36.544Z,9.60
2019-05-01T00:14:36.505Z,9.51
2019-05-01T00:15:36.486Z,9.47
2019-05-01T00:16:36.477Z,9.47
2019-05-01T00:17:36.449Z,9.39
2019-05-01T00:18:36.433Z,9.39
2019-05-01T00:19:36.454Z,9.39
2019-05-01T00:20:36.414Z,9.54
2019-05-01T00:21:36.380Z,9.43
2019-05-01T00:22:36.360Z,9.42
2019-05-01T00:23:36.346Z,9.48
2019-05-01T00:24:36.321Z,9.51
2019-05-01T00:25:36.336Z,9.39
2019-05-01T00:26:36.282Z,9.42
2019-05-01T00:27:36.262Z,9.39
2019-05-01T00:28:36.255Z,9.38
2019-05-01T00:29:36.234Z,9.46
2019-05-01T00:30:36.212Z,9.32
2019-05-01T00:31:36.205Z,9.38
2019-05-01T00:32:36.175Z,9.36
2019-05-01T00:33:36.150Z,9.28
2019-05-01T00:34:36.189Z,9.39
2019-05-01T00:35:36.137Z,9.38
2019-05-01T00:36:36.098Z,9.38
2019-05-01T00:37:36.077Z,9.40
2019-05-01T00:38:36.067Z,9.36
2019-05-01T00:39:36.065Z,9.38
2019-05-01T00:40:36.042Z,9.35
2019-05-01T00:41:36.001Z,9.33
2019-05-01T00:42:35.990Z,9.28
2019-05-01T00:43:35.965Z,9.26
2019-05-01T00:44:35.997Z,9.31
2019-05-01T00:45:35.935Z,9.18
2019-05-01T00:46:35.926Z,9.21
2019-05-01T00:47:35.897Z,9.14
2019-05-01T00:48:35.968Z,9.21
2019-05-01T00:49:35.868Z,9.24
2019-05-01T00:50:35.958Z,9.17
2019-05-01T00:51:35.839Z,9.15
2019-05-01T00:52:35.796Z,9.23
2019-05-01T00:53:35.779Z,9.23
2019-05-01T00:54:35.764Z,9.20
2019-05-01T00:55:35.740Z,9.18
2019-05-01T00:56:35.743Z,9.20
2019-05-01T00:57:35.703Z,9.14
2019-05-01T00:58:35.684Z,9.15
2019-05-01T00:59:35.663Z,9.14
2019-05-01T01:00:42.828Z,9.14
2019-05-01T01:01:35.640Z,9.08
2019-05-01T01:02:35.623Z,9.14
2019-05-01T01:03:35.586Z,9.11
2019-05-01T01:04:35.570Z,9.17
2019-05-01T01:05:35.553Z,9.02
2019-05-01T01:06:35.535Z,9.08
2019-05-01T01:07:35.516Z,9.05
2019-05-01T01:08:35.652Z,9.10
2019-05-01T01:09:35.490Z,8.92
2019-05-01T01:10:35.458Z,8.98
2019-05-01T01:11:35.439Z,8.95
2019-05-01T01:12:35.439Z,8.92
2019-05-01T01:13:35.426Z,8.99
2019-05-01T01:14:35.381Z,8.98
2019-05-01T01:15:35.365Z,8.87
2019-05-01T01:16:35.343Z,8.87
2019-05-01T01:17:35.323Z,8.86
2019-05-01T01:18:35.336Z,8.89
2019-05-01T01:19:35.288Z,8.91
2019-05-01T01:20:35.273Z,8.86
2019-05-01T01:21:35.247Z,8.81
2019-05-01T01:22:35.248Z,8.87
2019-05-01T01:23:35.216Z,8.92
2019-05-01T01:24:35.190Z,8.87
2019-05-01T01:25:35.172Z,8.83
2019-05-01T01:26:35.155Z,8.83
2019-05-01T01:27:35.135Z,8.79
2019-05-01T01:28:35.132Z,8.80
2019-05-01T01:29:35.096Z,8.73
2019-05-01T01:30:35.080Z,8.70
2019-05-01T01:31:35.058Z,8.71
2019-05-01T01:32:35.039Z,8.66
2019-05-01T01:33:35.032Z,8.66
2019-05-01T01:34:35.000Z,8.62
2019-05-01T01:35:35.628Z,8.73
2019-05-01T01:36:34.971Z,8.71
2019-05-01T01:37:34.951Z,8.58
2019-05-01T01:38:34.951Z,8.56
2019-05-01T01:39:34.910Z,8.59
2019-05-01T01:40:34.897Z,8.59
2019-05-01T01:41:34.868Z,8.58
2019-05-01T01:42:34.853Z,8.61
2019-05-01T01:43:34.830Z,8.63
2019-05-01T01:44:34.827Z,8.59
2019-05-01T01:45:34.790Z,8.56
2019-05-01T01:46:34.771Z,8.52
2019-05-01T01:47:34.752Z,8.56
2019-05-01T01:48:34.740Z,8.48
2019-05-01T01:49:34.738Z,8.59
2019-05-01T01:50:34.718Z,8.61
2019-05-01T01:51:34.681Z,8.59
2019-05-01T01:52:34.662Z,8.55
2019-05-01T01:53:34.641Z,8.55
2019-05-01T01:54:34.619Z,8.53
2019-05-01T01:55:34.635Z,8.55
2019-05-01T01:56:34.579Z,8.48
2019-05-01T01:57:34.566Z,8.53
2019-05-01T01:58:34.538Z,8.52
2019-05-01T01:59:34.525Z,8.55
2019-05-01T02:00:34.504Z,8.55
2019-05-01T02:01:34.495Z,8.55
2019-05-01T02:02:34.477Z,8.52
2019-05-01T02:03:34.442Z,8.62
2019-05-01T02:04:34.423Z,8.58
2019-05-01T02:05:34.414Z,8.62
2019-05-01T02:06:34.393Z,8.61
2019-05-01T02:07:34.386Z,8.66
2019-05-01T02:08:34.354Z,8.73
2019-05-01T02:09:34.330Z,8.74
2019-05-01T02:10:42.555Z,8.70
2019-05-01T02:11:34.292Z,8.61
2019-05-01T02:12:34.272Z,8.66
2019-05-01T02:13:34.269Z,8.52
2019-05-01T02:14:34.251Z,8.48
2019-05-01T02:15:34.213Z,8.59
2019-05-01T02:16:34.204Z,8.56
2019-05-01T02:17:34.189Z,8.55
2019-05-01T02:18:34.171Z,8.50
2019-05-01T02:19:34.136Z,8.48
2019-05-01T02:20:34.120Z,8.40
2019-05-01T02:21:34.114Z,8.40
2019-05-01T02:22:34.085Z,8.43
2019-05-01T02:23:34.069Z,8.45
2019-05-01T02:24:34.044Z,8.41
2019-05-01T02:25:34.051Z,8.45
2019-05-01T02:26:34.001Z,8.41
2019-05-01T02:27:33.980Z,8.43
2019-05-01T02:28:33.970Z,8.38
2019-05-01T02:29:33.948Z,8.41
2019-05-01T02:30:33.949Z,8.45
2019-05-01T02:31:33.904Z,8.41
2019-05-01T02:32:33.888Z,8.34
2019-05-01T02:33:33.869Z,8.40
2019-05-01T02:34:33.862Z,8.30
2019-05-01T02:35:33.830Z,8.37
2019-05-01T02:36:33.841Z,8.48
2019-05-01T02:37:33.790Z,8.50
2019-05-01T02:38:33.776Z,8.55
2019-05-01T02:39:33.758Z,8.50
2019-05-01T02:40:33.753Z,8.47
2019-05-01T02:41:33.718Z,8.52
2019-05-01T02:42:33.711Z,8.52
2019-05-01T02:43:33.678Z,8.48
2019-05-01T02:44:33.664Z,8.50
2019-05-01T02:45:33.638Z,8.44
2019-05-01T02:46:33.634Z,8.47
2019-05-01T02:47:33.609Z,8.43
2019-05-01T02:48:33.579Z,8.40
2019-05-01T02:49:33.564Z,8.38
2019-05-01T02:50:33.539Z,8.44
2019-05-01T02:51:33.526Z,8.40
2019-05-01T02:52:33.526Z,8.37
2019-05-01T02:53:33.506Z,8.28
2019-05-01T02:54:33.469Z,8.40
2019-05-01T02:55:33.446Z,8.33
2019-05-01T02:56:33.437Z,8.30
2019-05-01T02:57:33.450Z,8.16
2019-05-01T02:58:33.386Z,8.25
2019-05-01T02:59:33.449Z,8.19
2019-05-01T03:00:33.348Z,8.18
2019-05-01T03:01:46.567Z,8.12
2019-05-01T03:02:33.316Z,8.15
2019-05-01T03:03:33.300Z,8.20
2019-05-01T03:04:33.273Z,8.15
2019-05-01T03:05:33.284Z,8.16
2019-05-01T03:06:33.233Z,8.12
2019-05-01T03:07:33.240Z,8.07
2019-05-01T03:08:33.194Z,8.08
2019-05-01T03:09:33.191Z,8.00
2019-05-01T03:10:33.154Z,8.11
2019-05-01T03:11:33.157Z,8.10
2019-05-01T03:12:33.116Z,8.07
2019-05-01T03:13:33.148Z,8.04
2019-05-01T03:14:33.093Z,8.10
2019-05-01T03:15:33.060Z,8.08
2019-05-01T03:16:33.044Z,8.08
2019-05-01T03:17:33.026Z,8.16
2019-05-01T03:18:33.001Z,8.12
2019-05-01T03:19:33.246Z,8.10
2019-05-01T03:20:32.964Z,8.02
2019-05-01T03:21:32.944Z,8.01
2019-05-01T03:22:32.929Z,8.15
2019-05-01T03:23:32.922Z,8.22
2019-05-01T03:24:32.906Z,8.22
2019-05-01T03:25:32.874Z,8.16
2019-05-01T03:26:32.847Z,8.19
2019-05-01T03:27:32.847Z,8.28
2019-05-01T03:28:32.809Z,8.37
2019-05-01T03:29:32.958Z,8.38
2019-05-01T03:30:32.775Z,8.25
2019-05-01T03:31:32.752Z,8.37
2019-05-01T03:32:32.731Z,8.29
2019-05-01T03:33:32.720Z,8.40
2019-05-01T03:34:32.723Z,8.37
2019-05-01T03:35:32.841Z,8.38
2019-05-01T03:36:32.655Z,8.37
2019-05-01T03:37:32.636Z,8.30
2019-05-01T03:38:32.616Z,8.33
2019-05-01T03:39:32.594Z,8.44
2019-05-01T03:40:32.589Z,8.40
2019-05-01T03:41:32.686Z,8.43
2019-05-01T03:42:32.537Z,8.48
2019-05-01T03:43:32.517Z,8.55
2019-05-01T03:44:32.514Z,8.56
2019-05-01T03:45:34.310Z,8.50
2019-05-01T03:46:32.469Z,8.59
2019-05-01T03:47:32.443Z,8.56
2019-05-01T03:48:32.464Z,8.61
2019-05-01T03:49:32.401Z,8.65
2019-05-01T03:50:32.383Z,8.65
2019-05-01T03:51:32.366Z,8.71
2019-05-01T03:52:32.362Z,8.73
2019-05-01T03:53:32.327Z,8.66
2019-05-01T03:54:32.320Z,8.76
2019-05-01T03:55:32.291Z,8.77
2019-05-01T03:56:32.303Z,8.84
2019-05-01T03:57:32.261Z,8.80
2019-05-01T03:58:32.226Z,8.91
2019-05-01T03:59:32.205Z,8.80
2019-05-01T04:00:32.190Z,8.79
2019-05-01T04:01:32.184Z,8.84
2019-05-01T04:02:34.392Z,8.91
2019-05-01T04:03:32.129Z,8.86
2019-05-01T04:04:32.116Z,8.89
2019-05-01T04:05:32.094Z,8.80
2019-05-01T04:06:32.077Z,8.89
2019-05-01T04:07:36.085Z,8.87
2019-05-01T04:08:32.033Z,8.86
2019-05-01T04:09:32.015Z,8.86
2019-05-01T04:10:32.000Z,8.84
2019-05-01T04:11:31.983Z,8.81
2019-05-01T04:12:31.975Z,8.86
2019-05-01T04:13:31.941Z,8.86
2019-05-01T04:14:31.921Z,8.95
2019-05-01T04:15:31.898Z,8.86
2019-05-01T04:16:31.885Z,8.86
2019-05-01T04:17:31.860Z,8.84
2019-05-01T04:18:31.862Z,8.86
2019-05-01T04:19:31.821Z,8.86
2019-05-01T04:20:31.806Z,8.96
2019-05-01T04:21:31.787Z,8.87
2019-05-01T04:22:31.768Z,8.89
2019-05-01T04:23:31.772Z,8.84
2019-05-01T04:24:31.723Z,8.86
2019-05-01T04:25:31.713Z,8.91
2019-05-01T04:26:31.697Z,8.95
2019-05-01T04:27:31.666Z,8.83
2019-05-01T04:28:31.648Z,8.80
2019-05-01T04:29:31.657Z,8.76
2019-05-01T04:30:31.620Z,8.86
2019-05-01T04:31:31.591Z,8.79
2019-05-01T04:32:31.578Z,8.84
2019-05-01T04:33:31.554Z,8.95
2019-05-01T04:34:31.532Z,8.91
2019-05-01T04:35:31.530Z,8.87
2019-05-01T04:36:31.514Z,8.76
2019-05-01T04:37:31.482Z,8.84
2019-05-01T04:38:31.498Z,8.86
2019-05-01T04:39:31.437Z,8.76
2019-05-01T04:40:31.448Z,8.81
2019-05-01T04:41:31.397Z,8.84
2019-05-01T04:42:31.384Z,8.83
2019-05-01T04:43:31.365Z,8.86
2019-05-01T04:44:31.353Z,8.87
2019-05-01T04:45:31.323Z,8.87
2019-05-01T04:46:31.329Z,8.96
2019-05-01T04:47:31.285Z,8.91
2019-05-01T04:48:31.281Z,8.83
2019-05-01T04:49:31.271Z,8.91
2019-05-01T04:50:31.235Z,8.89
2019-05-01T04:51:31.205Z,8.96
2019-05-01T04:52:31.189Z,9.01
2019-05-01T04:53:31.179Z,9.10
2019-05-01T04:54:31.166Z,9.01
2019-05-01T04:55:31.127Z,9.04
2019-05-01T04:56:31.112Z,9.05
2019-05-01T04:57:31.092Z,9.04
2019-05-01T04:58:31.067Z,9.01
2019-05-01T04:59:31.048Z,9.02
2019-05-01T05:00:31.048Z,9.02
2019-05-01T05:01:31.032Z,9.14
2019-05-01T05:02:30.998Z,9.05
2019-05-01T05:03:30.994Z,9.02
2019-05-01T05:04:30.954Z,8.98
2019-05-01T05:05:30.950Z,8.98
2019-05-01T05:06:30.915Z,8.95
2019-05-01T05:07:30.896Z,8.95
2019-05-01T05:08:30.880Z,8.94
2019-05-01T05:09:30.860Z,8.92
2019-05-01T05:10:30.857Z,8.96
2019-05-01T05:11:30.821Z,8.95
2019-05-01T05:12:30.800Z,8.91
2019-05-01T05:13:30.778Z,8.98
2019-05-01T05:14:30.762Z,8.92
2019-05-01T05:15:30.745Z,8.96
2019-05-01T05:16:30.739Z,8.94
2019-05-01T05:17:30.702Z,8.86
2019-05-01T05:18:30.685Z,8.86
2019-05-01T05:19:30.666Z,8.95
2019-05-01T05:20:30.670Z,8.98
2019-05-01T05:21:30.629Z,8.94
2019-05-01T05:22:30.620Z,8.96
2019-05-01T05:23:30.586Z,8.94
2019-05-01T05:24:30.586Z,9.01
2019-05-01T05:25:30.555Z,8.92
2019-05-01T05:26:30.529Z,9.01
2019-05-01T05:27:30.509Z,8.94
2019-05-01T05:30:12.664Z,8.84
2019-05-01T05:31:12.624Z,8.83
2019-05-01T05:32:12.625Z,8.89
2019-05-01T05:33:18.454Z,8.84
2019-05-01T05:34:12.578Z,8.89
2019-05-01T05:35:12.553Z,8.89
2019-05-01T05:36:12.531Z,8.84
2019-05-01T05:37:12.511Z,8.98
2019-05-01T05:38:12.495Z,8.94
2019-05-01T05:39:12.469Z,8.86
2019-05-01T05:40:12.471Z,8.95
2019-05-01T05:41:12.425Z,8.84
2019-05-01T05:42:12.421Z,8.81
2019-05-01T05:43:12.394Z,8.98
2019-05-01T05:44:12.368Z,8.98
2019-05-01T05:45:12.349Z,8.94
2019-05-01T05:46:12.346Z,8.87
2019-05-01T05:47:12.314Z,8.94
2019-05-01T05:48:12.323Z,8.96
2019-05-01T05:49:12.274Z,9.08
2019-05-01T05:50:12.253Z,9.05
2019-05-01T05:51:12.243Z,9.01
2019-05-01T05:52:12.224Z,8.98
2019-05-01T05:53:12.212Z,8.91
2019-05-01T05:54:12.228Z,8.89
2019-05-01T05:55:12.163Z,8.83
2019-05-01T05:56:12.141Z,8.87
2019-05-01T05:57:12.124Z,8.95
2019-05-01T05:58:12.105Z,8.95
2019-05-01T05:59:12.080Z,8.99
2019-05-01T06:00:12.080Z,8.92
2019-05-01T06:01:12.042Z,8.99
2019-05-01T06:02:12.028Z,9.02
2019-05-01T06:03:12.037Z,9.02
2019-05-01T06:04:12.006Z,9.05
2019-05-01T06:05:11.967Z,8.96
2019-05-01T06:06:11.955Z,9.05
2019-05-01T06:07:11.932Z,9.05
2019-05-01T06:08:11.915Z,8.99
2019-05-01T06:09:13.838Z,9.05
2019-05-01T06:10:11.878Z,9.01
2019-05-01T06:11:11.849Z,9.05
2019-05-01T06:12:11.832Z,9.08
2019-05-01T06:13:11.808Z,9.11
2019-05-01T06:15:54.173Z,8.99
2019-05-01T06:16:54.165Z,9.15
2019-05-01T06:17:54.110Z,9.05
2019-05-01T06:18:54.090Z,9.02
2019-05-01T06:19:54.070Z,8.98
2019-05-01T06:20:57.242Z,9.05
2019-05-01T06:21:54.058Z,8.96
2019-05-01T06:22:54.010Z,9.15
2019-05-01T06:23:57.764Z,9.05
2019-05-01T06:24:53.979Z,9.10
2019-05-01T06:25:59.476Z,9.11
2019-05-01T06:26:53.953Z,9.08
2019-05-01T06:27:53.936Z,9.01
2019-05-01T06:28:55.888Z,9.08
2019-05-01T06:29:53.876Z,9.23
2019-05-01T06:30:53.860Z,9.23
2019-05-01T06:31:58.524Z,9.18
2019-05-01T06:32:53.817Z,9.28
2019-05-01T06:33:54.938Z,9.26
2019-05-01T06:34:53.797Z,9.23
2019-05-01T06:35:53.762Z,9.21
2019-05-01T06:36:53.743Z,9.17
2019-05-01T06:37:55.970Z,9.13
2019-05-01T06:38:53.727Z,9.18
2019-05-01T06:39:53.678Z,9.17
2019-05-01T06:40:58.320Z,9.17
2019-05-01T06:41:53.646Z,9.18
2019-05-01T06:42:53.625Z,9.13
2019-05-01T06:43:57.002Z,9.14
2019-05-01T06:44:53.587Z,9.15
2019-05-01T06:45:53.573Z,9.08
2019-05-01T06:46:53.552Z,9.02
2019-05-01T06:47:53.531Z,8.98
2019-05-01T06:48:54.704Z,9.05
2019-05-01T06:49:53.511Z,9.01
2019-05-01T06:50:53.471Z,9.01
2019-05-01T06:51:53.711Z,9.08
2019-05-01T06:52:53.445Z,9.13
2019-05-01T06:53:53.436Z,8.98
2019-05-01T06:54:53.593Z,9.15
2019-05-01T06:55:53.390Z,9.17
2019-05-01T06:56:53.361Z,9.04
2019-05-01T06:57:53.345Z,9.08
2019-05-01T06:58:55.346Z,9.21
2019-05-01T06:59:53.307Z,9.21
2019-05-01T07:00:53.308Z,9.23
2019-05-01T07:01:58.422Z,9.20
2019-05-01T07:02:53.237Z,9.20
2019-05-01T07:04:03.407Z,9.21
2019-05-01T07:04:53.205Z,9.21
2019-05-01T07:05:54.298Z,9.18
2019-05-01T07:06:53.180Z,9.15
2019-05-01T07:07:54.827Z,9.28
2019-05-01T07:08:53.122Z,9.28
2019-05-01T07:09:53.102Z,9.28
2019-05-01T07:10:53.087Z,9.28
2019-05-01T07:11:54.573Z,9.26
2019-05-01T07:12:53.045Z,9.20
2019-05-01T07:13:55.465Z,9.21
2019-05-01T07:14:53.011Z,9.23
2019-05-01T07:15:53.020Z,9.17
2019-05-01T07:16:52.972Z,9.28
2019-05-01T07:17:52.971Z,9.23
2019-05-01T07:18:52.928Z,9.20
2019-05-01T07:19:52.922Z,9.14
2019-05-01T07:20:53.399Z,9.33
2019-05-01T07:21:52.881Z,9.28
2019-05-01T07:22:52.871Z,9.42
2019-05-01T07:23:53.394Z,9.43
2019-05-01T07:24:52.814Z,9.42
2019-05-01T07:25:52.795Z,9.40
2019-05-01T07:26:52.775Z,9.29
2019-05-01T07:27:53.977Z,9.29
2019-05-01T07:28:52.759Z,9.31
2019-05-01T07:29:52.717Z,9.40
2019-05-01T07:30:54.723Z,9.42
2019-05-01T07:31:52.679Z,9.35
2019-05-01T07:32:52.660Z,9.40
2019-05-01T07:33:52.672Z,9.39
2019-05-01T07:34:56.722Z,9.42
2019-05-01T07:35:54.049Z,9.40
2019-05-01T07:36:52.604Z,9.38
2019-05-01T07:37:52.571Z,9.47
2019-05-01T07:38:52.546Z,9.35
2019-05-01T07:39:52.562Z,9.47
2019-05-01T07:40:52.505Z,9.48
2019-05-01T07:41:52.492Z,9.53
2019-05-01T07:42:52.466Z,9.61
2019-05-01T07:43:54.952Z,9.60
2019-05-01T07:44:52.429Z,9.60
2019-05-01T07:45:52.434Z,9.66
2019-05-01T07:46:54.028Z,9.69
2019-05-01T07:47:52.397Z,9.68
2019-05-01T07:48:52.355Z,9.58
2019-05-01T07:49:53.122Z,9.60
2019-05-01T07:50:52.327Z,9.57
2019-05-01T07:51:52.306Z,9.53
2019-05-01T07:52:53.952Z,9.53
2019-05-01T07:53:52.303Z,9.39
2019-05-01T07:54:52.247Z,9.38
2019-05-01T07:55:52.707Z,9.42
2019-05-01T07:56:52.209Z,9.51
2019-05-01T07:57:52.184Z,9.64
2019-05-01T07:58:53.297Z,9.58
2019-05-01T07:59:52.166Z,9.64
2019-05-01T08:00:52.136Z,9.69
2019-05-01T08:01:54.403Z,9.74
2019-05-01T08:02:52.086Z,9.71
2019-05-01T08:03:52.131Z,9.68
2019-05-01T08:04:52.067Z,9.81
2019-05-01T08:05:52.034Z,9.69
2019-05-01T08:06:56.546Z,9.84
2019-05-01T08:07:51.997Z,9.74
2019-05-01T08:08:51.979Z,9.81
2019-05-01T08:09:51.980Z,9.81
2019-05-01T08:10:51.958Z,9.86
2019-05-01T08:11:51.916Z,9.78
2019-05-01T08:12:55.384Z,9.90
2019-05-01T08:13:51.920Z,9.89
2019-05-01T08:14:52.403Z,9.97
2019-05-01T08:15:51.851Z,9.91
2019-05-01T08:16:51.844Z,9.93
2019-05-01T08:17:53.139Z,9.94
2019-05-01T08:18:51.814Z,10.08
2019-05-01T08:19:51.772Z,10.02
2019-05-01T08:20:51.747Z,9.90
2019-05-01T08:21:51.769Z,9.84
2019-05-01T08:22:51.757Z,9.83
2019-05-01T08:23:51.699Z,9.86
2019-05-01T08:24:53.855Z,9.86
2019-05-01T08:25:51.657Z,9.81
2019-05-01T08:26:51.635Z,9.87
2019-05-01T08:27:56.431Z,9.83
2019-05-01T08:28:51.598Z,9.87
2019-05-01T08:29:51.593Z,9.86
2019-05-01T08:30:52.710Z,9.84
2019-05-01T08:31:51.543Z,9.89
2019-05-01T08:32:51.540Z,9.90
2019-05-01T08:33:51.633Z,9.90
2019-05-01T08:34:51.479Z,9.90
2019-05-01T08:35:51.465Z,9.91
2019-05-01T08:36:51.468Z,10.02
2019-05-01T08:37:53.807Z,10.02
2019-05-01T08:38:51.409Z,9.91
2019-05-01T08:39:51.399Z,9.97
2019-05-01T08:40:55.536Z,9.90
2019-05-01T08:41:51.348Z,9.97
2019-05-01T08:42:51.355Z,10.01
2019-05-01T08:43:53.888Z,10.07
2019-05-01T08:44:51.293Z,10.11
2019-05-01T08:45:51.276Z,10.12
2019-05-01T08:46:52.209Z,10.11
2019-05-01T08:47:51.243Z,10.29
2019-05-01T08:48:51.233Z,10.30
2019-05-01T08:49:51.201Z,10.26
2019-05-01T08:50:54.511Z,10.32
2019-05-01T08:51:51.161Z,10.23
2019-05-01T08:52:51.145Z,10.27
2019-05-01T08:53:52.743Z,10.34
2019-05-01T08:54:51.129Z,10.32
2019-05-01T08:55:51.105Z,10.38
2019-05-01T08:56:52.992Z,10.32
2019-05-01T08:57:51.063Z,10.32
2019-05-01T08:58:51.044Z,10.45
2019-05-01T08:59:51.021Z,10.40
2019-05-01T09:00:51.031Z,10.53
2019-05-01T09:02:07.928Z,10.55
2019-05-01T09:02:50.954Z,10.55
2019-05-01T09:03:54.199Z,10.53
2019-05-01T09:05:01.708Z,10.51
2019-05-01T09:05:52.184Z,10.55
2019-05-01T09:06:50.910Z,10.51
2019-05-01T09:07:51.194Z,10.55
2019-05-01T09:08:50.879Z,10.59
2019-05-01T09:09:50.842Z,10.60
2019-05-01T09:10:54.706Z,10.66
2019-05-01T09:11:50.791Z,10.67
2019-05-01T09:12:52.068Z,10.59
2019-05-01T09:13:54.613Z,10.51
2019-05-01T09:14:51.294Z,10.51
2019-05-01T09:15:50.723Z,10.53
2019-05-01T09:16:52.490Z,10.59
2019-05-01T09:17:50.681Z,10.61
2019-05-01T09:18:50.663Z,10.68
2019-05-01T09:19:50.654Z,10.64
2019-05-01T09:20:50.647Z,10.66
2019-05-01T09:21:50.605Z,10.63
2019-05-01T09:22:50.590Z,10.71
2019-05-01T09:23:51.388Z,10.63
2019-05-01T09:24:50.551Z,10.70
2019-05-01T09:25:50.540Z,10.63
2019-05-01T09:26:51.513Z,10.61
2019-05-01T09:27:50.507Z,10.64
2019-05-01T09:28:50.476Z,10.59
2019-05-01T09:29:51.563Z,10.68
2019-05-01T09:30:50.444Z,10.63
2019-05-01T09:31:50.419Z,10.63
2019-05-01T09:32:54.294Z,10.66
2019-05-01T09:33:50.392Z,10.60
2019-05-01T09:34:50.365Z,10.70
2019-05-01T09:35:50.345Z,10.68
2019-05-01T09:36:50.330Z,10.71
2019-05-01T09:37:50.336Z,10.73
2019-05-01T09:38:50.297Z,10.71
2019-05-01T09:39:50.279Z,10.68
2019-05-01T09:40:50.262Z,10.71
2019-05-01T09:41:50.239Z,10.74
2019-05-01T09:42:50.241Z,10.82
2019-05-01T09:43:50.201Z,10.61
2019-05-01T09:44:50.198Z,10.74
2019-05-01T09:45:50.174Z,10.78
2019-05-01T09:46:50.155Z,10.76
2019-05-01T09:47:50.133Z,10.74
2019-05-01T09:48:50.130Z,10.66
2019-05-01T09:49:54.027Z,10.70
2019-05-01T09:50:50.076Z,10.74
2019-05-01T09:51:50.061Z,10.74
2019-05-01T09:52:50.043Z,10.81
2019-05-01T09:53:50.026Z,10.66
2019-05-01T09:54:50.015Z,10.66
2019-05-01T09:55:49.980Z,10.70
2019-05-01T09:56:49.971Z,10.71
2019-05-01T09:57:49.953Z,10.64
2019-05-01T09:58:49.929Z,10.64
2019-05-01T09:59:49.941Z,10.66
2019-05-01T10:00:52.691Z,10.51
2019-05-01T10:01:49.878Z,10.56
2019-05-01T10:02:49.855Z,10.59
2019-05-01T10:03:54.654Z,10.59
2019-05-01T10:04:49.819Z,10.71
2019-05-01T10:05:49.814Z,10.68
2019-05-01T10:06:52.209Z,10.81
2019-05-01T10:07:49.763Z,10.86
2019-05-01T10:08:49.759Z,10.88
2019-05-01T10:09:52.240Z,10.97
2019-05-01T10:10:49.711Z,11.00
2019-05-01T10:11:49.711Z,11.07
2019-05-01T10:12:49.670Z,11.14
2019-05-01T10:13:53.736Z,11.10
2019-05-01T10:14:49.631Z,11.10
2019-05-01T10:15:49.615Z,11.25
2019-05-01T10:16:49.600Z,11.19
2019-05-01T10:17:49.599Z,11.14
2019-05-01T10:18:49.562Z,11.18
2019-05-01T10:19:50.244Z,11.14
2019-05-01T10:20:49.528Z,11.24
2019-05-01T10:21:49.509Z,11.24
2019-05-01T10:22:49.504Z,11.27
2019-05-01T10:23:51.730Z,11.22
2019-05-01T10:24:49.453Z,11.36
2019-05-01T10:25:49.825Z,11.43
2019-05-01T10:26:49.416Z,11.33
2019-05-01T10:27:49.407Z,11.43
2019-05-01T10:28:50.183Z,11.37
2019-05-01T10:29:49.362Z,11.28
2019-05-01T10:30:49.350Z,11.21
2019-05-01T10:31:49.328Z,11.24
2019-05-01T10:32:52.927Z,11.11
2019-05-01T10:33:49.295Z,11.17
2019-05-01T10:34:49.294Z,11.19
2019-05-01T10:35:49.256Z,11.24
2019-05-01T10:36:49.923Z,11.22
2019-05-01T10:37:49.218Z,11.32
2019-05-01T10:38:49.201Z,11.33
2019-05-01T10:39:50.136Z,11.25
2019-05-01T10:40:49.181Z,11.29
2019-05-01T10:41:49.143Z,11.22
2019-05-01T10:42:49.131Z,11.25
2019-05-01T10:43:49.107Z,11.25
2019-05-01T10:44:49.098Z,11.19
2019-05-01T10:45:49.073Z,11.18
2019-05-01T10:46:49.076Z,11.27
2019-05-01T10:47:49.044Z,11.28
2019-05-01T10:48:49.022Z,11.36
2019-05-01T10:49:49.018Z,11.37
2019-05-01T10:50:48.995Z,11.44
2019-05-01T10:51:48.967Z,11.46
2019-05-01T10:52:48.944Z,11.62
2019-05-01T10:53:48.932Z,11.54
2019-05-01T10:54:48.942Z,11.54
2019-05-01T10:55:48.897Z,11.49
2019-05-01T10:56:48.875Z,11.65
2019-05-01T10:57:48.872Z,11.62
2019-05-01T10:58:48.844Z,11.73
2019-05-01T10:59:48.830Z,11.67
2019-05-01T11:00:48.833Z,11.75
2019-05-01T11:01:48.838Z,11.79
2019-05-01T11:02:48.765Z,11.83
2019-05-01T11:03:48.762Z,11.90
2019-05-01T11:04:48.729Z,11.94
2019-05-01T11:05:55.668Z,11.82
2019-05-01T11:06:48.720Z,11.86
2019-05-01T11:07:48.695Z,11.83
2019-05-01T11:08:48.664Z,11.83
2019-05-01T11:09:48.640Z,11.83
2019-05-01T11:10:48.628Z,11.85
2019-05-01T11:11:48.614Z,11.94
2019-05-01T11:12:48.598Z,11.90
2019-05-01T11:13:48.598Z,11.62
2019-05-01T11:14:48.550Z,11.57
2019-05-01T11:15:48.529Z,11.57
2019-05-01T11:16:48.517Z,11.64
2019-05-01T11:17:48.502Z,11.67
2019-05-01T11:18:48.486Z,11.65
2019-05-01T11:19:48.476Z,11.65
2019-05-01T11:20:48.442Z,11.69
2019-05-01T11:21:48.428Z,11.65
2019-05-01T11:22:48.413Z,11.61
2019-05-01T11:23:48.390Z,11.64
2019-05-01T11:24:48.403Z,11.40
2019-05-01T11:25:48.356Z,11.49
2019-05-01T11:26:48.343Z,11.51
2019-05-01T11:27:48.317Z,11.54
2019-05-01T11:28:48.304Z,11.67
2019-05-01T11:29:48.289Z,11.64
2019-05-01T11:30:48.288Z,11.70
2019-05-01T11:31:48.288Z,11.69
2019-05-01T11:32:48.234Z,11.62
2019-05-01T11:33:48.219Z,11.69
2019-05-01T11:34:48.198Z,11.69
2019-05-01T11:35:48.175Z,11.83
2019-05-01T11:36:48.156Z,11.96
2019-05-01T11:37:48.164Z,11.95
2019-05-01T11:38:48.122Z,11.96
2019-05-01T11:39:48.114Z,11.99
2019-05-01T11:40:48.086Z,12.19
2019-05-01T11:41:48.074Z,12.17
2019-05-01T11:42:48.057Z,12.19
2019-05-01T11:43:48.058Z,12.29
2019-05-01T11:44:48.012Z,12.37
2019-05-01T11:45:48.033Z,12.38
2019-05-01T11:46:47.977Z,12.31
2019-05-01T11:47:47.961Z,12.31
2019-05-01T11:48:47.944Z,12.41
2019-05-01T11:49:47.934Z,12.39
2019-05-01T11:50:47.904Z,12.46
2019-05-01T11:51:47.923Z,12.37
2019-05-01T11:52:47.869Z,12.49
2019-05-01T11:53:47.862Z,12.45
2019-05-01T11:54:47.847Z,12.39
2019-05-01T11:55:47.819Z,12.49
2019-05-01T11:56:47.837Z,12.59
2019-05-01T11:57:47.791Z,12.57
2019-05-01T11:58:47.767Z,12.60
2019-05-01T11:59:47.749Z,12.64
2019-05-01T12:00:47.735Z,12.52
2019-05-01T12:01:47.720Z,12.57
2019-05-01T12:02:47.723Z,12.59
2019-05-01T12:03:47.693Z,12.65
2019-05-01T12:04:47.659Z,12.59
2019-05-01T12:05:47.652Z,12.52
2019-05-01T12:06:47.625Z,12.54
2019-05-01T12:07:47.609Z,12.52
2019-05-01T12:08:47.616Z,12.56
2019-05-01T12:09:47.573Z,12.53
2019-05-01T12:10:47.554Z,12.65
2019-05-01T12:11:47.547Z,12.65
2019-05-01T12:12:47.529Z,12.65
2019-05-01T12:13:47.509Z,12.68
2019-05-01T12:14:47.503Z,12.71
2019-05-01T12:15:47.474Z,12.71
2019-05-01T12:16:47.468Z,12.71
2019-05-01T12:17:47.435Z,12.78
2019-05-01T12:18:47.475Z,12.78
2019-05-01T12:19:47.400Z,12.79
2019-05-01T12:20:47.404Z,12.77
2019-05-01T12:21:47.369Z,12.83
2019-05-01T12:22:49.577Z,12.82
2019-05-01T12:23:47.372Z,12.90
2019-05-01T12:24:47.311Z,12.87
2019-05-01T12:25:47.295Z,12.90
2019-05-01T12:26:47.282Z,12.83
2019-05-01T12:27:47.260Z,12.83
2019-05-01T12:28:47.245Z,12.92
2019-05-01T12:29:47.242Z,12.92
2019-05-01T12:30:47.229Z,13.08
2019-05-01T12:31:47.190Z,13.01
2019-05-01T12:32:47.173Z,12.93
2019-05-01T12:33:47.161Z,12.90
2019-05-01T12:34:47.145Z,12.93
2019-05-01T12:35:47.150Z,13.03
2019-05-01T12:36:47.141Z,13.07
2019-05-01T12:37:47.087Z,13.11
2019-05-01T12:38:47.072Z,13.08
2019-05-01T12:39:47.051Z,13.11
2019-05-01T12:40:47.033Z,13.08
2019-05-01T12:41:47.023Z,13.11
2019-05-01T12:42:47.022Z,13.07
2019-05-01T12:43:46.983Z,13.20
2019-05-01T12:44:46.965Z,13.26
2019-05-01T12:45:46.958Z,13.36
2019-05-01T12:46:46.931Z,13.46
2019-05-01T12:47:46.921Z,13.44
2019-05-01T12:48:46.913Z,13.48
2019-05-01T12:49:46.900Z,13.48
2019-05-01T12:50:46.947Z,13.51
2019-05-01T12:51:46.869Z,13.54
2019-05-01T12:52:46.829Z,13.51
2019-05-01T12:53:46.815Z,13.59
2019-05-01T12:54:46.794Z,13.70
2019-05-01T12:55:46.803Z,13.67
2019-05-01T12:56:46.927Z,13.67
2019-05-01T12:57:46.751Z,13.71
2019-05-01T12:58:46.728Z,13.57
2019-05-01T12:59:46.710Z,13.67
2019-05-01T13:00:46.717Z,13.60
2019-05-01T13:01:46.685Z,13.66
2019-05-01T13:02:46.656Z,13.69
2019-05-01T13:03:46.645Z,13.75
2019-05-01T13:04:46.629Z,13.73
2019-05-01T13:05:46.604Z,13.64
2019-05-01T13:06:49.465Z,13.73
2019-05-01T13:07:46.572Z,13.75
2019-05-01T13:08:46.558Z,13.75
2019-05-01T13:09:46.541Z,13.66
2019-05-01T13:10:46.608Z,13.78
2019-05-01T13:11:46.509Z,13.70
2019-05-01T13:12:46.514Z,13.66